Robert G. Stone, Jr. — WDD4596 — position and weather

sailwx.info

Track history (hours):
 
Tides and Currents Weather Stations Pressure Air Temp Water Temp Dewpoint Dewpoint Depression Visibility Wind Speed Wind Dir Waves Ship Positions

Robert G. Stone, Jr.

Owner: Kirby Inland Marine, LP, Houston, TX. More information available from US FCC via Universal Licensing System and Coast Guard Vessel Documentation Center.

Last reported at 2018-May-05 11:48 UTC. Time now 2018-May-21 12:52 UTC.
Position N 29°34' W 090°29'.
Warning: this ship's position is 16 days out of date.

Length 210 m; draft 2.8 m.

Type: . MMSI: 367146780.

Date/timePositionNaut miles runAvg speedWind from/ knotsBaromVisibWave heightAir tempDewpointWater temp
2018-May-05 11:48N 29°34' W 090°29'2 5.9
2018-May-05 11:28N 29°34' W 090°32'3 5.7
2018-May-05 11:00N 29°34' W 090°35'2 4.5
2018-May-05 10:30N 29°35' W 090°37'2 4.9
2018-May-05 10:00N 29°36' W 090°40'2 3.9
2018-May-05 09:30N 29°37' W 090°42'2 3.0
2018-May-05 09:00N 29°35' W 090°43'2 3.7
2018-May-05 08:30N 29°34' W 090°44'2 4.0
2018-May-05 08:00N 29°33' W 090°46'3 6.1
2018-May-05 07:30N 29°32' W 090°49'4 6.4
2018-May-05 06:51N 29°33' W 090°54'118 3.9
2018-May-04 00:15N 29°56' W 093°07'1 5.4
2018-May-03 23:59N 29°56' W 093°08'2 4.9
2018-May-03 23:30N 29°57' W 093°11'3 5.3
2018-May-03 23:00N 29°59' W 093°13'2 4.8
2018-May-03 22:30N 30°01' W 093°14'2 4.4
2018-May-03 22:00N 30°03' W 093°16'3 5.1
2018-May-03 21:30N 30°05' W 093°18'1 1.2
2018-May-03 21:00N 30°06' W 093°18'0 0.8
2018-May-03 20:30N 30°06' W 093°18'0 0.0
2018-May-03 20:00N 30°06' W 093°18'0 0.0
2018-May-03 19:30N 30°06' W 093°18'1 1.6
2018-May-03 19:00N 30°06' W 093°19'2 4.2
2018-May-03 18:30N 30°04' W 093°21'2 3.5
2018-May-03 18:00N 30°04' W 093°22'3 5.2
2018-May-03 17:30N 30°04' W 093°25'3 5.8
2018-May-03 17:00N 30°04' W 093°29'3 5.7
2018-May-03 16:30N 30°04' W 093°32'9 6.4
2018-May-03 15:06N 30°03' W 093°42'1 5.7
2018-May-03 14:58N 30°03' W 093°43'3 7.0
2018-May-03 14:30N 30°01' W 093°46'4 7.8
2018-May-03 14:00N 29°59' W 093°50'3 5.5
2018-May-03 13:30N 29°57' W 093°52'4 7.7
2018-May-03 13:00N 29°54' W 093°55'4 7.9
2018-May-03 12:30N 29°50' W 093°57'2 4.4
2018-May-03 12:00N 29°49' W 093°59'2 4.8
2018-May-03 11:30N 29°47' W 094°01'3 5.0
2018-May-03 11:00N 29°46' W 094°03'3 5.1
2018-May-03 10:30N 29°44' W 094°06'3 5.2
2018-May-03 10:00N 29°43' W 094°08'2 5.0
2018-May-03 09:30N 29°41' W 094°10'3 5.1
2018-May-03 08:59N 29°40' W 094°13'2 5.0
2018-May-03 08:30N 29°39' W 094°16'2 4.0
2018-May-03 08:00N 29°38' W 094°18'3 4.7
2018-May-03 07:28N 29°37' W 094°20'3 4.8
2018-May-03 06:51N 29°36' W 094°23'2 3.3
2018-May-03 06:24N 29°35' W 094°25'2 4.2
2018-May-03 06:00N 29°34' W 094°26'3 4.4
2018-May-03 05:19N 29°32' W 094°29'2 4.8
2018-May-03 04:59N 29°31' W 094°31'2 4.1
2018-May-03 04:28N 29°30' W 094°33'2 3.4
2018-May-03 03:57N 29°30' W 094°35'2 4.9
2018-May-03 03:28N 29°29' W 094°37'3 5.7
2018-May-03 03:00N 29°28' W 094°40'4 5.2
2018-May-03 02:16N 29°25' W 094°43'1 4.8
2018-May-03 01:59N 29°24' W 094°45'2 4.8
2018-May-03 01:29N 29°23' W 094°47'3 6.4
2018-May-03 01:00N 29°21' W 094°49'3 5.6
2018-May-03 00:27N 29°19' W 094°52'3 6.2
2018-May-03 00:00N 29°17' W 094°55'3 5.9
2018-May-02 23:30N 29°17' W 094°58'3 5.7
2018-May-02 23:00N 29°15' W 095°00'3 5.4
2018-May-02 22:30N 29°13' W 095°02'3 5.7
2018-May-02 22:00N 29°11' W 095°05'3 5.3
2018-May-02 21:30N 29°10' W 095°08'1 2.9
2018-May-02 21:00N 29°11' W 095°09'2 4.8
2018-May-02 20:30N 29°12' W 095°11'2 3.7
2018-May-02 20:00N 29°13' W 095°13'1 2.8
2018-May-02 19:30N 29°14' W 095°13'0 0.0
2018-May-02 19:00N 29°14' W 095°13'0 0.0
2018-May-02 18:30N 29°14' W 095°13'0 0.0
2018-May-02 18:00N 29°14' W 095°13'1 1.3
2018-May-02 17:30N 29°14' W 095°13'1 1.5
2018-May-02 16:59N 29°15' W 095°13'0 0.1
2018-May-02 16:30N 29°15' W 095°13'0 0.0
2018-May-02 16:00N 29°15' W 095°13'0 0.0
2018-May-02 15:30N 29°15' W 095°13'0 0.0
2018-May-02 15:00N 29°15' W 095°13'0 0.0
2018-May-02 14:30N 29°15' W 095°13'0 0.0
2018-May-02 14:00N 29°15' W 095°13'0 0.0
2018-May-02 13:30N 29°15' W 095°13'0 0.0
2018-May-02 13:00N 29°15' W 095°13'0 0.0
2018-May-02 12:30N 29°15' W 095°13'0 0.0
2018-May-02 12:00N 29°15' W 095°13'0 0.0
2018-May-02 11:30N 29°15' W 095°13'0 0.0
2018-May-02 11:00N 29°15' W 095°13'0 0.0
2018-May-02 10:30N 29°15' W 095°13'0 0.0
2018-May-02 10:00N 29°15' W 095°13'0 0.0
2018-May-02 09:30N 29°15' W 095°13'0 0.0
2018-May-02 09:00N 29°15' W 095°13'0 0.0
2018-May-02 08:30N 29°15' W 095°13'0 0.0
2018-May-02 08:00N 29°15' W 095°13'0 0.2
2018-May-02 07:29N 29°15' W 095°13'1 1.3
2018-May-02 06:58N 29°14' W 095°13'0 0.7
2018-May-02 06:30N 29°14' W 095°13'0 0.0
2018-May-02 05:58N 29°14' W 095°13'0 0.0
2018-May-02 05:30N 29°14' W 095°13'0 0.0
2018-May-02 05:00N 29°14' W 095°13'0 0.0
2018-May-02 04:30N 29°14' W 095°13'0 0.0
2018-May-02 04:00N 29°14' W 095°13'0 0.0
2018-May-02 03:30N 29°14' W 095°13'0 0.0
2018-May-02 03:00N 29°14' W 095°13'0 0.0
2018-May-02 02:30N 29°14' W 095°13'0 0.0
2018-May-02 02:00N 29°14' W 095°13'0 0.0
2018-May-02 01:30N 29°14' W 095°13'0 0.0
2018-May-02 01:00N 29°14' W 095°13'0 0.0
2018-May-02 00:30N 29°14' W 095°13'0 0.0
2018-May-02 00:00N 29°14' W 095°13'0 0.0
2018-May-01 23:30N 29°14' W 095°13'0 0.0
2018-May-01 23:00N 29°14' W 095°13'0 0.2
2018-May-01 22:30N 29°14' W 095°13'2 2.6
2018-May-01 21:55N 29°13' W 095°12'2 3.9
2018-May-01 21:30N 29°14' W 095°13'0 0.0
2018-May-01 20:59N 29°14' W 095°13'0 0.0
2018-May-01 20:30N 29°14' W 095°13'0 0.0
2018-May-01 19:59N 29°14' W 095°13'0 0.0
2018-May-01 19:30N 29°14' W 095°13'0 0.0
2018-May-01 19:00N 29°14' W 095°13'0 0.0
2018-May-01 18:30N 29°14' W 095°13'0 0.0
2018-May-01 18:00N 29°14' W 095°13'0 0.0
2018-May-01 17:30N 29°14' W 095°13'0 0.0
2018-May-01 17:00N 29°14' W 095°13'0 0.0
2018-May-01 16:30N 29°14' W 095°13'0 0.0
2018-May-01 16:00N 29°14' W 095°13'0 0.0
2018-May-01 15:30N 29°14' W 095°13'0 0.0
2018-May-01 15:00N 29°14' W 095°13'0 0.0
2018-May-01 14:30N 29°14' W 095°13'0 0.0
2018-May-01 14:00N 29°14' W 095°13'0 0.0
2018-May-01 13:30N 29°14' W 095°13'0 0.0
2018-May-01 13:00N 29°14' W 095°13'0 0.0
2018-May-01 12:30N 29°14' W 095°13'0 0.0
2018-May-01 11:59N 29°14' W 095°13'0 0.0
2018-May-01 11:30N 29°14' W 095°13'0 0.0
2018-May-01 11:00N 29°14' W 095°13'0 0.0
2018-May-01 10:30N 29°14' W 095°13'0 0.0
2018-May-01 10:00N 29°14' W 095°13'0 0.0
2018-May-01 09:30N 29°14' W 095°13'0 0.0
2018-May-01 09:00N 29°14' W 095°13'0 0.0
2018-May-01 08:30N 29°14' W 095°13'0 0.0
2018-May-01 07:59N 29°14' W 095°13'0 0.0
2018-May-01 07:30N 29°14' W 095°13'0 0.0
2018-May-01 07:00N 29°14' W 095°13'0 0.0
2018-May-01 06:30N 29°14' W 095°13'0 0.0
2018-May-01 06:00N 29°14' W 095°13'0 0.0
2018-May-01 05:30N 29°14' W 095°13'0 0.0
2018-May-01 05:00N 29°14' W 095°13'0 0.0
2018-May-01 04:30N 29°14' W 095°13'0 0.0
2018-May-01 04:00N 29°14' W 095°13'0 0.0
2018-May-01 03:30N 29°14' W 095°13'0 0.0
2018-May-01 03:00N 29°14' W 095°13'0 0.0
2018-May-01 02:30N 29°14' W 095°13'0 0.0
2018-May-01 02:00N 29°14' W 095°13'0 0.0
2018-May-01 01:30N 29°14' W 095°13'0 0.0
2018-May-01 01:00N 29°14' W 095°13'0 0.0
2018-May-01 00:30N 29°14' W 095°13'0 0.5
2018-May-01 00:00N 29°14' W 095°13'0 0.3
2018-Apr-30 23:30N 29°15' W 095°13'0 0.1
2018-Apr-30 23:00N 29°15' W 095°13'0 0.0
2018-Apr-30 22:30N 29°15' W 095°13'0 0.0
2018-Apr-30 22:00N 29°15' W 095°13'0 0.0
2018-Apr-30 21:30N 29°15' W 095°13'0 0.0
2018-Apr-30 21:00N 29°15' W 095°13'0 0.0
2018-Apr-30 20:30N 29°15' W 095°13'0 0.0
2018-Apr-30 20:00N 29°15' W 095°13'0 0.0
2018-Apr-30 19:30N 29°15' W 095°13'0 0.0
2018-Apr-30 19:00N 29°15' W 095°13'0 0.0
2018-Apr-30 18:30N 29°15' W 095°13'0 0.0
2018-Apr-30 18:00N 29°15' W 095°13'0 0.0
2018-Apr-30 17:30N 29°15' W 095°13'0 0.0
2018-Apr-30 17:00N 29°15' W 095°13'0 0.0
2018-Apr-30 16:30N 29°15' W 095°13'0 0.0
2018-Apr-30 16:00N 29°15' W 095°13'0 0.0
2018-Apr-30 15:30N 29°15' W 095°13'0 0.0
2018-Apr-30 14:46N 29°15' W 095°13'0 0.0
2018-Apr-30 14:30N 29°15' W 095°13'0 0.0
2018-Apr-30 14:00N 29°15' W 095°13'0 0.0
2018-Apr-30 13:30N 29°15' W 095°13'0 0.0
2018-Apr-30 13:00N 29°15' W 095°13'0 0.0
2018-Apr-30 12:30N 29°15' W 095°13'0 0.1
2018-Apr-30 12:00N 29°15' W 095°13'0 0.3
2018-Apr-30 11:30N 29°14' W 095°13'0 0.6
2018-Apr-30 11:00N 29°14' W 095°13'0 0.0
2018-Apr-30 10:21N 29°14' W 095°13'0 0.0
2018-Apr-30 09:57N 29°14' W 095°13'0 0.0
2018-Apr-30 09:27N 29°14' W 095°13'0 0.0
2018-Apr-30 08:57N 29°14' W 095°13'0 0.0
2018-Apr-30 08:30N 29°14' W 095°13'0 0.0
2018-Apr-30 07:51N 29°14' W 095°13'0 0.0
2018-Apr-30 07:27N 29°14' W 095°13'0 0.0
2018-Apr-30 06:57N 29°14' W 095°13'0 0.0
2018-Apr-30 06:27N 29°14' W 095°13'0 0.0
2018-Apr-30 05:51N 29°14' W 095°13'0 0.0
2018-Apr-30 05:12N 29°14' W 095°13'0 0.0
2018-Apr-30 04:51N 29°14' W 095°13'0 0.0
2018-Apr-30 04:27N 29°14' W 095°13'0 0.0
2018-Apr-30 03:39N 29°14' W 095°13'0 0.0
2018-Apr-30 03:15N 29°14' W 095°13'0 0.0
2018-Apr-30 02:57N 29°14' W 095°13'0 0.0
2018-Apr-30 01:54N 29°14' W 095°13'0 0.0
2018-Apr-30 01:24N 29°14' W 095°13'0 0.0
2018-Apr-30 00:48N 29°14' W 095°13'0 0.0
2018-Apr-29 22:27N 29°14' W 095°13'0 0.0
2018-Apr-29 17:51N 29°14' W 095°13'0 0.0
2018-Apr-29 17:25N 29°14' W 095°13'0 0.0
2018-Apr-29 17:00N 29°14' W 095°13'0 0.0
2018-Apr-29 16:30N 29°14' W 095°13'0 0.0
2018-Apr-29 15:05N 29°14' W 095°13'0 0.0
2018-Apr-29 15:00N 29°14' W 095°13'0 0.0
2018-Apr-29 14:30N 29°14' W 095°13'0 0.0
2018-Apr-29 14:01N 29°14' W 095°13'0 0.0
2018-Apr-29 13:31N 29°14' W 095°13'0 0.0
2018-Apr-29 12:59N 29°14' W 095°13'0 0.0
2018-Apr-29 12:30N 29°14' W 095°13'0 0.0
2018-Apr-29 11:57N 29°14' W 095°13'0 0.0
2018-Apr-29 11:30N 29°14' W 095°13'0 0.0
2018-Apr-29 11:00N 29°14' W 095°13'0 0.0
2018-Apr-29 10:30N 29°14' W 095°13'0 0.0
2018-Apr-29 10:00N 29°14' W 095°13'0 0.0
2018-Apr-29 09:30N 29°14' W 095°13'0 0.0
2018-Apr-29 09:00N 29°14' W 095°13'0 0.0
2018-Apr-29 08:30N 29°14' W 095°13'0 0.0
2018-Apr-29 08:00N 29°14' W 095°13'0 0.0
2018-Apr-29 07:30N 29°14' W 095°13'0 0.0
2018-Apr-29 01:07N 29°14' W 095°13'0 0.0
2018-Apr-29 01:00N 29°14' W 095°13'0 0.0
2018-Apr-29 00:30N 29°14' W 095°13'0 0.2
2018-Apr-29 00:00N 29°14' W 095°13'0 0.0
2018-Apr-28 23:30N 29°14' W 095°13'0 0.0
2018-Apr-28 23:00N 29°14' W 095°13'0 0.0
2018-Apr-28 22:30N 29°14' W 095°13'0 0.0
2018-Apr-28 22:00N 29°14' W 095°13'0 0.0
2018-Apr-28 21:30N 29°14' W 095°13'0 0.0
2018-Apr-28 20:59N 29°14' W 095°13'0 0.0
2018-Apr-28 20:29N 29°14' W 095°13'0 0.0
2018-Apr-28 20:00N 29°14' W 095°13'0 0.1
2018-Apr-28 19:30N 29°14' W 095°13'1 2.6
2018-Apr-28 19:00N 29°13' W 095°13'0 0.0
2018-Apr-28 18:30N 29°13' W 095°13'0 0.0
2018-Apr-28 18:00N 29°13' W 095°13'0 0.0
2018-Apr-28 17:30N 29°13' W 095°13'0 0.0
2018-Apr-28 17:00N 29°13' W 095°13'0 0.0
2018-Apr-28 16:30N 29°13' W 095°13'0 0.0
2018-Apr-28 16:00N 29°13' W 095°13'0 0.0
2018-Apr-28 15:30N 29°13' W 095°13'0 0.0
2018-Apr-28 15:00N 29°13' W 095°13'0 0.0
2018-Apr-28 14:30N 29°13' W 095°13'0 0.0
2018-Apr-28 14:00N 29°13' W 095°13'0 0.0
2018-Apr-28 13:30N 29°13' W 095°13'0 0.0
2018-Apr-28 13:00N 29°13' W 095°13'0 0.0
2018-Apr-28 12:30N 29°13' W 095°13'0 0.0
2018-Apr-28 12:00N 29°13' W 095°13'0 0.0
2018-Apr-28 11:30N 29°13' W 095°13'0 0.0
2018-Apr-28 11:00N 29°13' W 095°13'0 0.0
2018-Apr-28 10:30N 29°13' W 095°13'0 0.0
2018-Apr-28 09:59N 29°13' W 095°13'0 0.0
2018-Apr-28 09:30N 29°13' W 095°13'0 0.0
2018-Apr-28 09:00N 29°13' W 095°13'0 0.0
2018-Apr-28 08:30N 29°13' W 095°13'0 0.0
2018-Apr-28 07:59N 29°13' W 095°13'0 0.0
2018-Apr-28 07:30N 29°13' W 095°13'0 0.0
2018-Apr-28 07:00N 29°13' W 095°13'0 0.0
2018-Apr-28 04:43N 29°13' W 095°13'0 0.0
2018-Apr-28 04:26N 29°13' W 095°13'0 0.0
2018-Apr-28 03:59N 29°13' W 095°13'0 0.0
2018-Apr-28 03:28N 29°13' W 095°13'0 0.0
2018-Apr-28 03:00N 29°13' W 095°13'5 2.2
2018-Apr-28 00:34N 29°10' W 095°08'1 3.6
2018-Apr-28 00:12N 29°10' W 095°06'1 2.9
2018-Apr-28 00:00N 29°11' W 095°06'1 1.8
2018-Apr-27 23:30N 29°11' W 095°05'2 3.2
2018-Apr-27 23:00N 29°12' W 095°03'0 0.1
2018-Apr-27 22:30N 29°12' W 095°04'0 0.2
2018-Apr-27 22:00N 29°12' W 095°03'3 5.5
2018-Apr-27 21:30N 29°11' W 095°06'2 4.5
2018-Apr-27 21:00N 29°11' W 095°09'3 5.4
2018-Apr-27 20:30N 29°12' W 095°11'2 4.4
2018-Apr-27 19:59N 29°14' W 095°13'0 0.1
2018-Apr-27 19:30N 29°14' W 095°13'2 4.6
2018-Apr-27 19:00N 29°12' W 095°11'3 5.5
2018-Apr-27 18:30N 29°11' W 095°09'7 2.0
2018-Apr-27 14:49N 29°14' W 095°01'3 6.5
2018-Apr-27 14:25N 29°16' W 094°59'5 6.1
2018-Apr-27 13:39N 29°17' W 094°54'1 6.7
2018-Apr-27 13:25N 29°18' W 094°53'3 7.0
2018-Apr-27 13:00N 29°20' W 094°50'3 5.8
2018-Apr-27 12:29N 29°22' W 094°47'5 0.3
2018-Apr-26 18:25N 29°25' W 094°43'0 0.5
2018-Apr-26 18:00N 29°26' W 094°43'3 6.2
2018-Apr-26 17:26N 29°28' W 094°40'3 6.2
2018-Apr-26 17:00N 29°29' W 094°37'4 6.4
2018-Apr-26 16:18N 29°30' W 094°32'0 1.0
2018-Apr-26 15:56N 29°31' W 094°32'0 0.0
2018-Apr-26 15:29N 29°31' W 094°32'3 4.5
2018-Apr-26 14:55N 29°32' W 094°29'6 5.4
2018-Apr-26 13:48N 29°36' W 094°24'3 1.7
2018-Apr-26 12:12N 29°37' W 094°21'1 0.6
2018-Apr-26 10:24N 29°37' W 094°20'2 5.8
2018-Apr-26 09:59N 29°38' W 094°18'3 6.3
2018-Apr-26 09:30N 29°40' W 094°14'4 6.4
2018-Apr-26 08:55N 29°41' W 094°10'3 6.4
2018-Apr-26 08:30N 29°43' W 094°08'3 6.5
2018-Apr-26 08:00N 29°45' W 094°05'3 6.6
2018-Apr-26 07:30N 29°47' W 094°02'3 6.0
2018-Apr-26 07:00N 29°49' W 093°60'3 6.1
2018-Apr-26 06:30N 29°51' W 093°57'4 7.4
2018-Apr-26 06:00N 29°54' W 093°54'4 7.9
2018-Apr-26 05:30N 29°57' W 093°52'3 6.4
2018-Apr-26 05:00N 29°59' W 093°49'4 7.1
2018-Apr-26 04:29N 30°01' W 093°45'3 6.1
2018-Apr-26 03:57N 30°03' W 093°43'3 6.0
2018-Apr-26 03:30N 30°04' W 093°39'3 6.1
2018-Apr-26 03:00N 30°04' W 093°36'3 5.7
2018-Apr-26 02:26N 30°04' W 093°32'2 5.7
2018-Apr-26 02:00N 30°04' W 093°29'3 5.8
2018-Apr-26 01:30N 30°04' W 093°26'3 5.7
2018-Apr-26 01:00N 30°04' W 093°23'3 5.5
2018-Apr-26 00:30N 30°05' W 093°20'2 3.7
2018-Apr-26 00:00N 30°06' W 093°18'0 0.1
2018-Apr-25 23:30N 30°06' W 093°18'1 2.5
2018-Apr-25 23:00N 30°05' W 093°17'2 3.2
2018-Apr-25 22:30N 30°04' W 093°16'0 0.0
2018-Apr-25 22:00N 30°04' W 093°16'1 1.9
2018-Apr-25 21:30N 30°03' W 093°16'3 5.5
2018-Apr-25 21:00N 30°01' W 093°14'4 5.8
2018-Apr-25 20:19N 29°58' W 093°11'2 6.2
2018-Apr-25 19:59N 29°56' W 093°09'3 6.0
2018-Apr-25 19:30N 29°56' W 093°06'3 5.6
2018-Apr-25 19:00N 29°56' W 093°03'38 5.8
2018-Apr-25 12:28N 29°50' W 092°19'3 5.8
2018-Apr-25 12:00N 29°49' W 092°17'  
Track history (hours):
 
Tides and Currents Weather Stations Pressure Air Temp Water Temp Dewpoint Dewpoint Depression Visibility Wind Speed Wind Dir Waves Ship Positions

Robert G. Stone, Jr.

Owner: Kirby Inland Marine, LP, Houston, TX. More information available from US FCC via Universal Licensing System and Coast Guard Vessel Documentation Center.

Last reported at 2018-May-05 11:48 UTC. Time now 2018-May-21 12:52 UTC.
Position N 29°34' W 090°29'.
Warning: this ship's position is 16 days out of date.

Length 210 m; draft 2.8 m.

Type: . MMSI: 367146780.

Date/timePositionNaut miles runAvg speedWind from/ knotsBaromVisibWave heightAir tempDewpointWater temp
2018-May-05 11:48N 29°34' W 090°29'2 5.9
2018-May-05 11:28N 29°34' W 090°32'3 5.7
2018-May-05 11:00N 29°34' W 090°35'2 4.5
2018-May-05 10:30N 29°35' W 090°37'2 4.9
2018-May-05 10:00N 29°36' W 090°40'2 3.9
2018-May-05 09:30N 29°37' W 090°42'2 3.0
2018-May-05 09:00N 29°35' W 090°43'2 3.7
2018-May-05 08:30N 29°34' W 090°44'2 4.0
2018-May-05 08:00N 29°33' W 090°46'3 6.1
2018-May-05 07:30N 29°32' W 090°49'4 6.4
2018-May-05 06:51N 29°33' W 090°54'118 3.9
2018-May-04 00:15N 29°56' W 093°07'1 5.4
2018-May-03 23:59N 29°56' W 093°08'2 4.9
2018-May-03 23:30N 29°57' W 093°11'3 5.3
2018-May-03 23:00N 29°59' W 093°13'2 4.8
2018-May-03 22:30N 30°01' W 093°14'2 4.4
2018-May-03 22:00N 30°03' W 093°16'3 5.1
2018-May-03 21:30N 30°05' W 093°18'1 1.2
2018-May-03 21:00N 30°06' W 093°18'0 0.8
2018-May-03 20:30N 30°06' W 093°18'0 0.0
2018-May-03 20:00N 30°06' W 093°18'0 0.0
2018-May-03 19:30N 30°06' W 093°18'1 1.6
2018-May-03 19:00N 30°06' W 093°19'2 4.2
2018-May-03 18:30N 30°04' W 093°21'2 3.5
2018-May-03 18:00N 30°04' W 093°22'3 5.2
2018-May-03 17:30N 30°04' W 093°25'3 5.8
2018-May-03 17:00N 30°04' W 093°29'3 5.7
2018-May-03 16:30N 30°04' W 093°32'9 6.4
2018-May-03 15:06N 30°03' W 093°42'1 5.7
2018-May-03 14:58N 30°03' W 093°43'3 7.0
2018-May-03 14:30N 30°01' W 093°46'4 7.8
2018-May-03 14:00N 29°59' W 093°50'3 5.5
2018-May-03 13:30N 29°57' W 093°52'4 7.7
2018-May-03 13:00N 29°54' W 093°55'4 7.9
2018-May-03 12:30N 29°50' W 093°57'2 4.4
2018-May-03 12:00N 29°49' W 093°59'2 4.8
2018-May-03 11:30N 29°47' W 094°01'3 5.0
2018-May-03 11:00N 29°46' W 094°03'3 5.1
2018-May-03 10:30N 29°44' W 094°06'3 5.2
2018-May-03 10:00N 29°43' W 094°08'2 5.0
2018-May-03 09:30N 29°41' W 094°10'3 5.1
2018-May-03 08:59N 29°40' W 094°13'2 5.0
2018-May-03 08:30N 29°39' W 094°16'2 4.0
2018-May-03 08:00N 29°38' W 094°18'3 4.7
2018-May-03 07:28N 29°37' W 094°20'3 4.8
2018-May-03 06:51N 29°36' W 094°23'2 3.3
2018-May-03 06:24N 29°35' W 094°25'2 4.2
2018-May-03 06:00N 29°34' W 094°26'3 4.4
2018-May-03 05:19N 29°32' W 094°29'2 4.8
2018-May-03 04:59N 29°31' W 094°31'2 4.1
2018-May-03 04:28N 29°30' W 094°33'2 3.4
2018-May-03 03:57N 29°30' W 094°35'2 4.9
2018-May-03 03:28N 29°29' W 094°37'3 5.7
2018-May-03 03:00N 29°28' W 094°40'4 5.2
2018-May-03 02:16N 29°25' W 094°43'1 4.8
2018-May-03 01:59N 29°24' W 094°45'2 4.8
2018-May-03 01:29N 29°23' W 094°47'3 6.4
2018-May-03 01:00N 29°21' W 094°49'3 5.6
2018-May-03 00:27N 29°19' W 094°52'3 6.2
2018-May-03 00:00N 29°17' W 094°55'3 5.9
2018-May-02 23:30N 29°17' W 094°58'3 5.7
2018-May-02 23:00N 29°15' W 095°00'3 5.4
2018-May-02 22:30N 29°13' W 095°02'3 5.7
2018-May-02 22:00N 29°11' W 095°05'3 5.3
2018-May-02 21:30N 29°10' W 095°08'1 2.9
2018-May-02 21:00N 29°11' W 095°09'2 4.8
2018-May-02 20:30N 29°12' W 095°11'2 3.7
2018-May-02 20:00N 29°13' W 095°13'1 2.8
2018-May-02 19:30N 29°14' W 095°13'0 0.0
2018-May-02 19:00N 29°14' W 095°13'0 0.0
2018-May-02 18:30N 29°14' W 095°13'0 0.0
2018-May-02 18:00N 29°14' W 095°13'1 1.3
2018-May-02 17:30N 29°14' W 095°13'1 1.5
2018-May-02 16:59N 29°15' W 095°13'0 0.1
2018-May-02 16:30N 29°15' W 095°13'0 0.0
2018-May-02 16:00N 29°15' W 095°13'0 0.0
2018-May-02 15:30N 29°15' W 095°13'0 0.0
2018-May-02 15:00N 29°15' W 095°13'0 0.0
2018-May-02 14:30N 29°15' W 095°13'0 0.0
2018-May-02 14:00N 29°15' W 095°13'0 0.0
2018-May-02 13:30N 29°15' W 095°13'0 0.0
2018-May-02 13:00N 29°15' W 095°13'0 0.0
2018-May-02 12:30N 29°15' W 095°13'0 0.0
2018-May-02 12:00N 29°15' W 095°13'0 0.0
2018-May-02 11:30N 29°15' W 095°13'0 0.0
2018-May-02 11:00N 29°15' W 095°13'0 0.0
2018-May-02 10:30N 29°15' W 095°13'0 0.0
2018-May-02 10:00N 29°15' W 095°13'0 0.0
2018-May-02 09:30N 29°15' W 095°13'0 0.0
2018-May-02 09:00N 29°15' W 095°13'0 0.0
2018-May-02 08:30N 29°15' W 095°13'0 0.0
2018-May-02 08:00N 29°15' W 095°13'0 0.2
2018-May-02 07:29N 29°15' W 095°13'1 1.3
2018-May-02 06:58N 29°14' W 095°13'0 0.7
2018-May-02 06:30N 29°14' W 095°13'0 0.0
2018-May-02 05:58N 29°14' W 095°13'0 0.0
2018-May-02 05:30N 29°14' W 095°13'0 0.0
2018-May-02 05:00N 29°14' W 095°13'0 0.0
2018-May-02 04:30N 29°14' W 095°13'0 0.0
2018-May-02 04:00N 29°14' W 095°13'0 0.0
2018-May-02 03:30N 29°14' W 095°13'0 0.0
2018-May-02 03:00N 29°14' W 095°13'0 0.0
2018-May-02 02:30N 29°14' W 095°13'0 0.0
2018-May-02 02:00N 29°14' W 095°13'0 0.0
2018-May-02 01:30N 29°14' W 095°13'0 0.0
2018-May-02 01:00N 29°14' W 095°13'0 0.0
2018-May-02 00:30N 29°14' W 095°13'0 0.0
2018-May-02 00:00N 29°14' W 095°13'0 0.0
2018-May-01 23:30N 29°14' W 095°13'0 0.0
2018-May-01 23:00N 29°14' W 095°13'0 0.2
2018-May-01 22:30N 29°14' W 095°13'2 2.6
2018-May-01 21:55N 29°13' W 095°12'2 3.9
2018-May-01 21:30N 29°14' W 095°13'0 0.0
2018-May-01 20:59N 29°14' W 095°13'0 0.0
2018-May-01 20:30N 29°14' W 095°13'0 0.0
2018-May-01 19:59N 29°14' W 095°13'0 0.0
2018-May-01 19:30N 29°14' W 095°13'0 0.0
2018-May-01 19:00N 29°14' W 095°13'0 0.0
2018-May-01 18:30N 29°14' W 095°13'0 0.0
2018-May-01 18:00N 29°14' W 095°13'0 0.0
2018-May-01 17:30N 29°14' W 095°13'0 0.0
2018-May-01 17:00N 29°14' W 095°13'0 0.0
2018-May-01 16:30N 29°14' W 095°13'0 0.0
2018-May-01 16:00N 29°14' W 095°13'0 0.0
2018-May-01 15:30N 29°14' W 095°13'0 0.0
2018-May-01 15:00N 29°14' W 095°13'0 0.0
2018-May-01 14:30N 29°14' W 095°13'0 0.0
2018-May-01 14:00N 29°14' W 095°13'0 0.0
2018-May-01 13:30N 29°14' W 095°13'0 0.0
2018-May-01 13:00N 29°14' W 095°13'0 0.0
2018-May-01 12:30N 29°14' W 095°13'0 0.0
2018-May-01 11:59N 29°14' W 095°13'0 0.0
2018-May-01 11:30N 29°14' W 095°13'0 0.0
2018-May-01 11:00N 29°14' W 095°13'0 0.0
2018-May-01 10:30N 29°14' W 095°13'0 0.0
2018-May-01 10:00N 29°14' W 095°13'0 0.0
2018-May-01 09:30N 29°14' W 095°13'0 0.0
2018-May-01 09:00N 29°14' W 095°13'0 0.0
2018-May-01 08:30N 29°14' W 095°13'0 0.0
2018-May-01 07:59N 29°14' W 095°13'0 0.0
2018-May-01 07:30N 29°14' W 095°13'0 0.0
2018-May-01 07:00N 29°14' W 095°13'0 0.0
2018-May-01 06:30N 29°14' W 095°13'0 0.0
2018-May-01 06:00N 29°14' W 095°13'0 0.0
2018-May-01 05:30N 29°14' W 095°13'0 0.0
2018-May-01 05:00N 29°14' W 095°13'0 0.0
2018-May-01 04:30N 29°14' W 095°13'0 0.0
2018-May-01 04:00N 29°14' W 095°13'0 0.0
2018-May-01 03:30N 29°14' W 095°13'0 0.0
2018-May-01 03:00N 29°14' W 095°13'0 0.0
2018-May-01 02:30N 29°14' W 095°13'0 0.0
2018-May-01 02:00N 29°14' W 095°13'0 0.0
2018-May-01 01:30N 29°14' W 095°13'0 0.0
2018-May-01 01:00N 29°14' W 095°13'0 0.0
2018-May-01 00:30N 29°14' W 095°13'0 0.5
2018-May-01 00:00N 29°14' W 095°13'0 0.3
2018-Apr-30 23:30N 29°15' W 095°13'0 0.1
2018-Apr-30 23:00N 29°15' W 095°13'0 0.0
2018-Apr-30 22:30N 29°15' W 095°13'0 0.0
2018-Apr-30 22:00N 29°15' W 095°13'0 0.0
2018-Apr-30 21:30N 29°15' W 095°13'0 0.0
2018-Apr-30 21:00N 29°15' W 095°13'0 0.0
2018-Apr-30 20:30N 29°15' W 095°13'0 0.0
2018-Apr-30 20:00N 29°15' W 095°13'0 0.0
2018-Apr-30 19:30N 29°15' W 095°13'0 0.0
2018-Apr-30 19:00N 29°15' W 095°13'0 0.0
2018-Apr-30 18:30N 29°15' W 095°13'0 0.0
2018-Apr-30 18:00N 29°15' W 095°13'0 0.0
2018-Apr-30 17:30N 29°15' W 095°13'0 0.0
2018-Apr-30 17:00N 29°15' W 095°13'0 0.0
2018-Apr-30 16:30N 29°15' W 095°13'0 0.0
2018-Apr-30 16:00N 29°15' W 095°13'0 0.0
2018-Apr-30 15:30N 29°15' W 095°13'0 0.0
2018-Apr-30 14:46N 29°15' W 095°13'0 0.0
2018-Apr-30 14:30N 29°15' W 095°13'0 0.0
2018-Apr-30 14:00N 29°15' W 095°13'0 0.0
2018-Apr-30 13:30N 29°15' W 095°13'0 0.0
2018-Apr-30 13:00N 29°15' W 095°13'0 0.0
2018-Apr-30 12:30N 29°15' W 095°13'0 0.1
2018-Apr-30 12:00N 29°15' W 095°13'0 0.3
2018-Apr-30 11:30N 29°14' W 095°13'0 0.6
2018-Apr-30 11:00N 29°14' W 095°13'0 0.0
2018-Apr-30 10:21N 29°14' W 095°13'0 0.0
2018-Apr-30 09:57N 29°14' W 095°13'0 0.0
2018-Apr-30 09:27N 29°14' W 095°13'0 0.0
2018-Apr-30 08:57N 29°14' W 095°13'0 0.0
2018-Apr-30 08:30N 29°14' W 095°13'0 0.0
2018-Apr-30 07:51N 29°14' W 095°13'0 0.0
2018-Apr-30 07:27N 29°14' W 095°13'0 0.0
2018-Apr-30 06:57N 29°14' W 095°13'0 0.0
2018-Apr-30 06:27N 29°14' W 095°13'0 0.0
2018-Apr-30 05:51N 29°14' W 095°13'0 0.0
2018-Apr-30 05:12N 29°14' W 095°13'0 0.0
2018-Apr-30 04:51N 29°14' W 095°13'0 0.0
2018-Apr-30 04:27N 29°14' W 095°13'0 0.0
2018-Apr-30 03:39N 29°14' W 095°13'0 0.0
2018-Apr-30 03:15N 29°14' W 095°13'0 0.0
2018-Apr-30 02:57N 29°14' W 095°13'0 0.0
2018-Apr-30 01:54N 29°14' W 095°13'0 0.0
2018-Apr-30 01:24N 29°14' W 095°13'0 0.0
2018-Apr-30 00:48N 29°14' W 095°13'0 0.0
2018-Apr-29 22:27N 29°14' W 095°13'0 0.0
2018-Apr-29 17:51N 29°14' W 095°13'0 0.0
2018-Apr-29 17:25N 29°14' W 095°13'0 0.0
2018-Apr-29 17:00N 29°14' W 095°13'0 0.0
2018-Apr-29 16:30N 29°14' W 095°13'0 0.0
2018-Apr-29 15:05N 29°14' W 095°13'0 0.0
2018-Apr-29 15:00N 29°14' W 095°13'0 0.0
2018-Apr-29 14:30N 29°14' W 095°13'0 0.0
2018-Apr-29 14:01N 29°14' W 095°13'0 0.0
2018-Apr-29 13:31N 29°14' W 095°13'0 0.0
2018-Apr-29 12:59N 29°14' W 095°13'0 0.0
2018-Apr-29 12:30N 29°14' W 095°13'0 0.0
2018-Apr-29 11:57N 29°14' W 095°13'0 0.0
2018-Apr-29 11:30N 29°14' W 095°13'0 0.0
2018-Apr-29 11:00N 29°14' W 095°13'0 0.0
2018-Apr-29 10:30N 29°14' W 095°13'0 0.0
2018-Apr-29 10:00N 29°14' W 095°13'0 0.0
2018-Apr-29 09:30N 29°14' W 095°13'0 0.0
2018-Apr-29 09:00N 29°14' W 095°13'0 0.0
2018-Apr-29 08:30N 29°14' W 095°13'0 0.0
2018-Apr-29 08:00N 29°14' W 095°13'0 0.0
2018-Apr-29 07:30N 29°14' W 095°13'0 0.0
2018-Apr-29 01:07N 29°14' W 095°13'0 0.0
2018-Apr-29 01:00N 29°14' W 095°13'0 0.0
2018-Apr-29 00:30N 29°14' W 095°13'0 0.2
2018-Apr-29 00:00N 29°14' W 095°13'0 0.0
2018-Apr-28 23:30N 29°14' W 095°13'0 0.0
2018-Apr-28 23:00N 29°14' W 095°13'0 0.0
2018-Apr-28 22:30N 29°14' W 095°13'0 0.0
2018-Apr-28 22:00N 29°14' W 095°13'0 0.0
2018-Apr-28 21:30N 29°14' W 095°13'0 0.0
2018-Apr-28 20:59N 29°14' W 095°13'0 0.0
2018-Apr-28 20:29N 29°14' W 095°13'0 0.0
2018-Apr-28 20:00N 29°14' W 095°13'0 0.1
2018-Apr-28 19:30N 29°14' W 095°13'1 2.6
2018-Apr-28 19:00N 29°13' W 095°13'0 0.0
2018-Apr-28 18:30N 29°13' W 095°13'0 0.0
2018-Apr-28 18:00N 29°13' W 095°13'0 0.0
2018-Apr-28 17:30N 29°13' W 095°13'0 0.0
2018-Apr-28 17:00N 29°13' W 095°13'0 0.0
2018-Apr-28 16:30N 29°13' W 095°13'0 0.0
2018-Apr-28 16:00N 29°13' W 095°13'0 0.0
2018-Apr-28 15:30N 29°13' W 095°13'0 0.0
2018-Apr-28 15:00N 29°13' W 095°13'0 0.0
2018-Apr-28 14:30N 29°13' W 095°13'0 0.0
2018-Apr-28 14:00N 29°13' W 095°13'0 0.0
2018-Apr-28 13:30N 29°13' W 095°13'0 0.0
2018-Apr-28 13:00N 29°13' W 095°13'0 0.0
2018-Apr-28 12:30N 29°13' W 095°13'0 0.0
2018-Apr-28 12:00N 29°13' W 095°13'0 0.0
2018-Apr-28 11:30N 29°13' W 095°13'0 0.0
2018-Apr-28 11:00N 29°13' W 095°13'0 0.0
2018-Apr-28 10:30N 29°13' W 095°13'0 0.0
2018-Apr-28 09:59N 29°13' W 095°13'0 0.0
2018-Apr-28 09:30N 29°13' W 095°13'0 0.0
2018-Apr-28 09:00N 29°13' W 095°13'0 0.0
2018-Apr-28 08:30N 29°13' W 095°13'0 0.0
2018-Apr-28 07:59N 29°13' W 095°13'0 0.0
2018-Apr-28 07:30N 29°13' W 095°13'0 0.0
2018-Apr-28 07:00N 29°13' W 095°13'0 0.0
2018-Apr-28 04:43N 29°13' W 095°13'0 0.0
2018-Apr-28 04:26N 29°13' W 095°13'0 0.0
2018-Apr-28 03:59N 29°13' W 095°13'0 0.0
2018-Apr-28 03:28N 29°13' W 095°13'0 0.0
2018-Apr-28 03:00N 29°13' W 095°13'5 2.2
2018-Apr-28 00:34N 29°10' W 095°08'1 3.6
2018-Apr-28 00:12N 29°10' W 095°06'1 2.9
2018-Apr-28 00:00N 29°11' W 095°06'1 1.8
2018-Apr-27 23:30N 29°11' W 095°05'2 3.2
2018-Apr-27 23:00N 29°12' W 095°03'0 0.1
2018-Apr-27 22:30N 29°12' W 095°04'0 0.2
2018-Apr-27 22:00N 29°12' W 095°03'3 5.5
2018-Apr-27 21:30N 29°11' W 095°06'2 4.5
2018-Apr-27 21:00N 29°11' W 095°09'3 5.4
2018-Apr-27 20:30N 29°12' W 095°11'2 4.4
2018-Apr-27 19:59N 29°14' W 095°13'0 0.1
2018-Apr-27 19:30N 29°14' W 095°13'2 4.6
2018-Apr-27 19:00N 29°12' W 095°11'3 5.5
2018-Apr-27 18:30N 29°11' W 095°09'7 2.0
2018-Apr-27 14:49N 29°14' W 095°01'3 6.5
2018-Apr-27 14:25N 29°16' W 094°59'5 6.1
2018-Apr-27 13:39N 29°17' W 094°54'1 6.7
2018-Apr-27 13:25N 29°18' W 094°53'3 7.0
2018-Apr-27 13:00N 29°20' W 094°50'3 5.8
2018-Apr-27 12:29N 29°22' W 094°47'5 0.3
2018-Apr-26 18:25N 29°25' W 094°43'0 0.5
2018-Apr-26 18:00N 29°26' W 094°43'3 6.2
2018-Apr-26 17:26N 29°28' W 094°40'3 6.2
2018-Apr-26 17:00N 29°29' W 094°37'4 6.4
2018-Apr-26 16:18N 29°30' W 094°32'0 1.0
2018-Apr-26 15:56N 29°31' W 094°32'0 0.0
2018-Apr-26 15:29N 29°31' W 094°32'3 4.5
2018-Apr-26 14:55N 29°32' W 094°29'6 5.4
2018-Apr-26 13:48N 29°36' W 094°24'3 1.7
2018-Apr-26 12:12N 29°37' W 094°21'1 0.6
2018-Apr-26 10:24N 29°37' W 094°20'2 5.8
2018-Apr-26 09:59N 29°38' W 094°18'3 6.3
2018-Apr-26 09:30N 29°40' W 094°14'4 6.4
2018-Apr-26 08:55N 29°41' W 094°10'3 6.4
2018-Apr-26 08:30N 29°43' W 094°08'3 6.5
2018-Apr-26 08:00N 29°45' W 094°05'3 6.6
2018-Apr-26 07:30N 29°47' W 094°02'3 6.0
2018-Apr-26 07:00N 29°49' W 093°60'3 6.1
2018-Apr-26 06:30N 29°51' W 093°57'4 7.4
2018-Apr-26 06:00N 29°54' W 093°54'4 7.9
2018-Apr-26 05:30N 29°57' W 093°52'3 6.4
2018-Apr-26 05:00N 29°59' W 093°49'4 7.1
2018-Apr-26 04:29N 30°01' W 093°45'3 6.1
2018-Apr-26 03:57N 30°03' W 093°43'3 6.0
2018-Apr-26 03:30N 30°04' W 093°39'3 6.1
2018-Apr-26 03:00N 30°04' W 093°36'3 5.7
2018-Apr-26 02:26N 30°04' W 093°32'2 5.7
2018-Apr-26 02:00N 30°04' W 093°29'3 5.8
2018-Apr-26 01:30N 30°04' W 093°26'3 5.7
2018-Apr-26 01:00N 30°04' W 093°23'3 5.5
2018-Apr-26 00:30N 30°05' W 093°20'2 3.7
2018-Apr-26 00:00N 30°06' W 093°18'0 0.1
2018-Apr-25 23:30N 30°06' W 093°18'1 2.5
2018-Apr-25 23:00N 30°05' W 093°17'2 3.2
2018-Apr-25 22:30N 30°04' W 093°16'0 0.0
2018-Apr-25 22:00N 30°04' W 093°16'1 1.9
2018-Apr-25 21:30N 30°03' W 093°16'3 5.5
2018-Apr-25 21:00N 30°01' W 093°14'4 5.8
2018-Apr-25 20:19N 29°58' W 093°11'2 6.2
2018-Apr-25 19:59N 29°56' W 093°09'3 6.0
2018-Apr-25 19:30N 29°56' W 093°06'3 5.6
2018-Apr-25 19:00N 29°56' W 093°03'38 5.8
2018-Apr-25 12:28N 29°50' W 092°19'3 5.8
2018-Apr-25 12:00N 29°49' W 092°17'  

Dump ship's entire track history